createdAt,value
2019-05-19T00:01:57.840Z,15.40
2019-05-19T00:04:27.660Z,15.40
2019-05-19T00:06:57.721Z,15.40
2019-05-19T00:09:27.563Z,15.40
2019-05-19T00:11:57.473Z,15.30
2019-05-19T00:14:27.203Z,15.30
2019-05-19T00:16:57.030Z,15.20
2019-05-19T00:19:27.337Z,15.00
2019-05-19T00:21:57.157Z,15.00
2019-05-19T00:24:26.993Z,14.80
2019-05-19T00:26:56.780Z,15.10
2019-05-19T00:29:26.620Z,14.70
2019-05-19T00:31:56.470Z,14.70
2019-05-19T00:34:26.176Z,14.90
2019-05-19T00:36:55.936Z,14.90
2019-05-19T00:39:25.750Z,15.00
2019-05-19T00:41:55.522Z,15.00
2019-05-19T00:44:25.342Z,14.90
2019-05-19T00:46:55.029Z,15.00
2019-05-19T00:49:24.857Z,14.90
2019-05-19T00:51:55.420Z,15.00
2019-05-19T00:54:25.388Z,14.50
2019-05-19T00:56:56.383Z,14.50
2019-05-19T00:59:27.562Z,14.50
2019-05-19T01:01:57.283Z,14.50
2019-05-19T01:04:27.098Z,14.70
2019-05-19T01:06:57.062Z,14.40
2019-05-19T01:09:26.848Z,14.70
2019-05-19T01:11:56.605Z,14.60
2019-05-19T01:14:26.388Z,14.70
2019-05-19T01:16:56.010Z,14.80
2019-05-19T01:19:25.774Z,14.60
2019-05-19T01:21:58.030Z,14.60
2019-05-19T01:24:27.904Z,14.50
2019-05-19T01:26:57.986Z,14.50
2019-05-19T01:29:27.744Z,14.40
2019-05-19T01:31:57.503Z,14.30
2019-05-19T01:34:27.266Z,14.30
2019-05-19T01:36:57.001Z,14.40
2019-05-19T01:39:26.921Z,14.40
2019-05-19T01:41:56.597Z,14.30
2019-05-19T01:44:26.312Z,14.30
2019-05-19T01:46:56.067Z,14.40
2019-05-19T01:49:25.808Z,14.30
2019-05-19T01:51:55.994Z,14.10
2019-05-19T01:54:25.825Z,14.10
2019-05-19T01:56:55.570Z,14.20
2019-05-19T01:59:25.340Z,14.40
2019-05-19T02:01:55.173Z,14.20
2019-05-19T02:04:24.894Z,14.20
2019-05-19T02:06:54.797Z,14.20
2019-05-19T02:09:24.567Z,14.10
2019-05-19T02:11:54.286Z,13.80
2019-05-19T02:14:24.065Z,14.00
2019-05-19T02:16:53.864Z,14.00
2019-05-19T02:19:23.587Z,14.20
2019-05-19T02:21:53.467Z,13.90
2019-05-19T02:24:23.231Z,13.90
2019-05-19T02:26:53.081Z,13.90
2019-05-19T02:29:22.869Z,13.70
2019-05-19T02:31:52.664Z,13.60
2019-05-19T02:34:22.448Z,13.60
2019-05-19T02:36:52.271Z,13.70
2019-05-19T02:39:22.179Z,13.60
2019-05-19T02:41:54.204Z,13.60
2019-05-19T02:44:25.775Z,13.60
2019-05-19T02:46:57.098Z,13.90
2019-05-19T02:49:30.453Z,13.90
2019-05-19T02:52:03.513Z,13.90
2019-05-19T02:54:35.550Z,13.90
2019-05-19T02:57:06.064Z,13.80
2019-05-19T02:59:37.175Z,13.90
2019-05-19T03:02:10.745Z,13.90
2019-05-19T03:04:40.599Z,13.90
2019-05-19T03:07:10.405Z,13.80
2019-05-19T03:09:40.232Z,13.90
2019-05-19T03:12:09.991Z,13.90
2019-05-19T03:14:39.875Z,13.90
2019-05-19T03:17:09.598Z,13.70
2019-05-19T03:19:39.338Z,14.00
2019-05-19T03:22:09.187Z,13.80
2019-05-19T03:24:38.962Z,13.70
2019-05-19T03:27:08.810Z,13.40
2019-05-19T03:29:42.988Z,13.90
2019-05-19T03:32:23.090Z,14.00
2019-05-19T03:34:52.901Z,13.90
2019-05-19T03:37:22.817Z,14.00
2019-05-19T03:39:52.572Z,14.10
2019-05-19T03:42:22.425Z,14.10
2019-05-19T03:44:52.178Z,14.20
2019-05-19T03:47:21.954Z,14.40
2019-05-19T03:49:51.758Z,14.10
2019-05-19T03:52:21.519Z,14.50
2019-05-19T03:54:51.427Z,14.60
2019-05-19T03:57:21.215Z,14.80
2019-05-19T03:59:51.049Z,14.80
2019-05-19T04:02:20.815Z,14.90
2019-05-19T04:04:50.523Z,15.00
2019-05-19T04:07:20.258Z,15.10
2019-05-19T04:09:50.120Z,15.40
2019-05-19T04:12:20.143Z,15.40
2019-05-19T04:14:49.873Z,15.50
2019-05-19T04:17:19.601Z,15.70
2019-05-19T04:19:49.508Z,15.50
2019-05-19T04:22:19.261Z,15.80
2019-05-19T04:24:49.070Z,15.70
2019-05-19T04:27:18.834Z,16.00
2019-05-19T04:29:48.573Z,16.20
2019-05-19T04:32:18.427Z,15.90
2019-05-19T04:34:48.188Z,16.00
2019-05-19T04:37:17.991Z,16.60
2019-05-19T04:39:47.746Z,16.70
2019-05-19T04:42:17.589Z,16.90
2019-05-19T04:44:47.328Z,17.10
2019-05-19T04:47:17.445Z,16.90
2019-05-19T04:49:47.339Z,17.20
2019-05-19T04:52:17.344Z,17.30
2019-05-19T04:54:47.182Z,17.30
2019-05-19T04:57:17.004Z,17.20
2019-05-19T04:59:46.807Z,17.30
2019-05-19T05:02:17.077Z,17.70
2019-05-19T05:04:46.817Z,18.10
2019-05-19T05:07:16.681Z,18.50
2019-05-19T05:09:46.510Z,18.70
2019-05-19T05:12:16.264Z,18.80
2019-05-19T05:14:46.115Z,19.10
2019-05-19T05:17:35.047Z,19.00
2019-05-19T05:20:05.445Z,19.10
2019-05-19T05:22:35.128Z,19.30
2019-05-19T05:25:05.427Z,19.50
2019-05-19T05:27:35.199Z,19.50
2019-05-19T05:30:05.431Z,19.30
2019-05-19T05:32:35.224Z,19.50
2019-05-19T05:35:05.582Z,19.30
2019-05-19T05:37:35.348Z,19.40
2019-05-19T05:40:06.085Z,19.70
2019-05-19T05:42:35.815Z,19.80
2019-05-19T05:45:06.837Z,19.90
2019-05-19T05:47:36.855Z,19.90
2019-05-19T05:50:07.314Z,19.90
2019-05-19T05:52:38.830Z,20.00
2019-05-19T05:55:09.231Z,20.10
2019-05-19T05:57:39.232Z,20.20
2019-05-19T06:00:09.955Z,20.50
2019-05-19T06:02:39.714Z,20.10
2019-05-19T06:05:09.687Z,20.20
2019-05-19T06:07:39.438Z,20.30
2019-05-19T06:10:10.003Z,20.30
2019-05-19T06:12:39.782Z,20.40
2019-05-19T06:15:10.265Z,20.70
2019-05-19T06:17:39.984Z,20.50
2019-05-19T06:20:09.977Z,20.90
2019-05-19T06:22:55.016Z,20.80
2019-05-19T06:25:11.915Z,21.20
2019-05-19T06:27:41.685Z,21.30
2019-05-19T06:30:12.155Z,21.30
2019-05-19T06:32:46.027Z,21.30
2019-05-19T06:35:16.346Z,21.30
2019-05-19T06:37:46.087Z,21.50
2019-05-19T06:40:16.548Z,21.50
2019-05-19T06:42:46.409Z,21.60
2019-05-19T06:45:16.801Z,21.40
2019-05-19T06:47:46.596Z,21.70
2019-05-19T06:50:16.785Z,22.10
2019-05-19T06:52:46.596Z,22.00
2019-05-19T06:55:16.576Z,21.80
2019-05-19T06:57:46.344Z,21.80
2019-05-19T07:00:17.054Z,22.20
2019-05-19T07:02:47.218Z,21.90
2019-05-19T07:05:17.070Z,22.30
2019-05-19T07:07:46.904Z,21.90
2019-05-19T07:10:16.921Z,22.10
2019-05-19T07:12:46.688Z,21.80
2019-05-19T07:15:16.753Z,22.20
2019-05-19T07:17:46.583Z,22.60
2019-05-19T07:20:16.437Z,22.90
2019-05-19T07:22:46.167Z,22.90
2019-05-19T07:25:16.080Z,22.90
2019-05-19T07:27:45.965Z,23.20
2019-05-19T07:30:16.243Z,23.20
2019-05-19T07:32:46.095Z,23.10
2019-05-19T07:35:16.012Z,23.50
2019-05-19T07:37:45.747Z,23.30
2019-05-19T07:40:15.703Z,23.40
2019-05-19T07:42:45.414Z,23.40
2019-05-19T07:45:16.026Z,23.10
2019-05-19T07:47:45.832Z,23.20
2019-05-19T07:50:15.845Z,23.40
2019-05-19T07:52:45.649Z,23.40
2019-05-19T07:55:15.649Z,23.50
2019-05-19T07:57:45.405Z,23.70
2019-05-19T08:00:15.783Z,23.80
2019-05-19T08:02:45.740Z,24.00
2019-05-19T08:05:15.660Z,24.30
2019-05-19T08:07:45.428Z,24.20
2019-05-19T08:10:15.625Z,24.20
2019-05-19T08:12:45.789Z,24.20
2019-05-19T08:15:15.840Z,24.60
2019-05-19T08:17:45.582Z,24.80
2019-05-19T08:20:17.208Z,24.60
2019-05-19T08:22:46.965Z,25.00
2019-05-19T08:25:16.799Z,24.70
2019-05-19T08:27:46.546Z,24.20
2019-05-19T08:30:17.082Z,24.40
2019-05-19T08:32:47.127Z,24.50
2019-05-19T08:35:17.036Z,24.50
2019-05-19T08:37:46.804Z,24.50
2019-05-19T08:40:16.816Z,24.50
2019-05-19T08:42:46.821Z,24.80
2019-05-19T08:45:16.783Z,25.00
2019-05-19T08:47:46.569Z,25.00
2019-05-19T08:50:16.852Z,24.80
2019-05-19T08:52:46.608Z,25.10
2019-05-19T08:55:16.688Z,25.10
2019-05-19T08:57:46.504Z,25.20
2019-05-19T09:00:16.774Z,25.30
2019-05-19T09:02:46.612Z,25.40
2019-05-19T09:05:16.542Z,25.50
2019-05-19T09:07:46.394Z,25.50
2019-05-19T09:10:16.612Z,25.50
2019-05-19T09:12:46.295Z,25.70
2019-05-19T09:15:16.351Z,25.60
2019-05-19T09:17:46.205Z,25.60
2019-05-19T09:20:16.199Z,25.80
2019-05-19T09:22:46.268Z,25.80
2019-05-19T09:25:16.026Z,25.50
2019-05-19T09:27:45.815Z,25.80
2019-05-19T09:30:16.449Z,25.60
2019-05-19T09:32:46.273Z,25.90
2019-05-19T09:35:16.098Z,26.10
2019-05-19T09:37:45.890Z,26.30
2019-05-19T09:40:16.021Z,26.30
2019-05-19T09:42:45.813Z,26.30
2019-05-19T09:45:16.165Z,26.50
2019-05-19T09:47:45.913Z,26.50
2019-05-19T09:50:16.419Z,26.60
2019-05-19T09:52:46.354Z,26.80
2019-05-19T09:55:16.170Z,26.70
2019-05-19T09:57:45.914Z,26.90
2019-05-19T10:00:16.712Z,27.40
2019-05-19T10:02:46.743Z,27.50
2019-05-19T10:05:16.776Z,27.60
2019-05-19T10:07:46.665Z,27.60
2019-05-19T10:10:49.489Z,27.70
2019-05-19T10:13:19.198Z,27.90
2019-05-19T10:15:48.962Z,28.30
2019-05-19T10:18:18.703Z,28.20
2019-05-19T10:20:50.477Z,28.50
2019-05-19T10:23:20.355Z,29.10
2019-05-19T10:25:50.327Z,29.30
2019-05-19T10:28:20.061Z,29.60
2019-05-19T10:30:50.011Z,29.80
2019-05-19T10:33:19.788Z,30.20
2019-05-19T10:35:49.492Z,30.40
2019-05-19T10:38:19.538Z,30.80
2019-05-19T10:40:49.392Z,31.40
2019-05-19T10:43:19.165Z,32.00
2019-05-19T10:45:59.651Z,31.90
2019-05-19T10:48:29.537Z,32.40
2019-05-19T10:50:59.365Z,33.50
2019-05-19T10:53:29.150Z,33.40
2019-05-19T10:55:59.055Z,33.50
2019-05-19T10:58:28.858Z,32.60
2019-05-19T11:00:58.769Z,32.60
2019-05-19T11:03:28.487Z,32.80
2019-05-19T11:05:58.293Z,33.20
2019-05-19T11:08:28.017Z,32.90
2019-05-19T11:10:57.832Z,32.20
2019-05-19T11:13:27.740Z,32.30
2019-05-19T11:15:57.555Z,32.40
2019-05-19T11:18:27.261Z,33.00
2019-05-19T11:20:57.076Z,33.60
2019-05-19T11:23:26.856Z,33.80
2019-05-19T11:25:56.650Z,33.30
2019-05-19T11:28:26.761Z,32.40
2019-05-19T11:30:56.816Z,33.50
2019-05-19T11:33:26.624Z,35.00
2019-05-19T11:35:56.533Z,36.40
2019-05-19T11:38:26.241Z,36.80
2019-05-19T11:40:55.979Z,37.70
2019-05-19T11:43:25.741Z,37.30
2019-05-19T11:45:55.481Z,37.40
2019-05-19T11:48:25.238Z,37.60
2019-05-19T11:50:55.013Z,39.30
2019-05-19T11:53:25.046Z,39.70
2019-05-19T11:56:06.147Z,40.50
2019-05-19T11:58:26.535Z,41.20
2019-05-19T12:00:56.296Z,42.00
2019-05-19T12:03:26.161Z,43.10
2019-05-19T12:05:55.891Z,43.80
2019-05-19T12:08:25.695Z,44.90
2019-05-19T12:10:55.420Z,46.00
2019-05-19T12:13:25.422Z,46.70
2019-05-19T12:15:55.134Z,48.40
2019-05-19T12:18:24.837Z,48.80
2019-05-19T12:20:54.570Z,48.50
2019-05-19T12:23:24.423Z,49.10
2019-05-19T12:25:54.166Z,49.20
2019-05-19T12:28:23.905Z,50.30
2019-05-19T12:30:53.926Z,47.10
2019-05-19T12:33:23.702Z,47.90
2019-05-19T12:35:53.700Z,49.10
2019-05-19T12:38:23.446Z,50.10
2019-05-19T12:40:53.207Z,51.90
2019-05-19T12:43:23.018Z,50.30
2019-05-19T12:45:52.809Z,50.60
2019-05-19T12:48:22.660Z,52.10
2019-05-19T12:50:52.434Z,51.60
2019-05-19T12:53:22.220Z,51.90
2019-05-19T12:55:52.224Z,51.50
2019-05-19T12:58:22.056Z,53.00
2019-05-19T13:00:51.823Z,52.90
2019-05-19T13:03:21.561Z,54.80
2019-05-19T13:05:51.430Z,55.60
2019-05-19T13:08:21.156Z,55.10
2019-05-19T13:10:50.899Z,56.10
2019-05-19T13:13:20.994Z,55.60
2019-05-19T13:15:50.750Z,54.60
2019-05-19T13:18:20.479Z,55.00
2019-05-19T13:20:50.172Z,52.00
2019-05-19T13:23:20.003Z,52.30
2019-05-19T13:25:49.720Z,53.10
2019-05-19T13:28:19.404Z,55.80
2019-05-19T13:30:49.126Z,56.20
2019-05-19T13:33:18.851Z,57.00
2019-05-19T13:35:48.591Z,56.10
2019-05-19T13:38:18.394Z,54.10
2019-05-19T13:40:48.252Z,49.90
2019-05-19T13:43:18.036Z,46.40
2019-05-19T13:45:47.800Z,44.10
2019-05-19T13:48:17.540Z,42.20
2019-05-19T13:50:47.360Z,40.40
2019-05-19T13:53:17.119Z,38.80
2019-05-19T13:55:46.853Z,37.40
2019-05-19T13:58:16.551Z,36.50
2019-05-19T14:00:46.365Z,36.10
2019-05-19T14:03:16.054Z,35.20
2019-05-19T14:05:45.805Z,35.10
2019-05-19T14:08:15.619Z,34.40
2019-05-19T14:10:45.446Z,37.90
2019-05-19T14:13:15.213Z,38.80
2019-05-19T14:15:45.189Z,37.20
2019-05-19T14:18:14.975Z,35.20
2019-05-19T14:20:44.658Z,32.60
2019-05-19T14:23:14.400Z,31.90
2019-05-19T14:25:44.199Z,31.60
2019-05-19T14:28:14.148Z,30.70
2019-05-19T14:30:43.948Z,30.90
2019-05-19T14:33:13.969Z,30.60
2019-05-19T14:35:43.701Z,33.40
2019-05-19T14:38:13.463Z,33.80
2019-05-19T14:40:44.010Z,33.20
2019-05-19T14:43:13.749Z,32.90
2019-05-19T14:45:43.537Z,32.40
2019-05-19T14:48:13.582Z,31.70
2019-05-19T14:50:43.301Z,31.60
2019-05-19T14:53:13.035Z,30.90
2019-05-19T14:55:43.100Z,30.10
2019-05-19T14:58:12.866Z,29.60
2019-05-19T15:00:42.712Z,29.30
2019-05-19T15:03:12.437Z,28.90
2019-05-19T15:05:42.254Z,28.30
2019-05-19T15:08:12.011Z,28.10
2019-05-19T15:10:41.782Z,28.00
2019-05-19T15:13:11.592Z,28.40
2019-05-19T15:15:41.276Z,28.90
2019-05-19T15:18:10.990Z,31.60
2019-05-19T15:20:40.720Z,32.40
2019-05-19T15:23:10.418Z,32.00
2019-05-19T15:25:40.385Z,30.80
2019-05-19T15:28:10.231Z,29.70
2019-05-19T15:30:39.966Z,28.70
2019-05-19T15:33:09.685Z,27.80
2019-05-19T15:35:39.401Z,27.30
2019-05-19T15:38:09.464Z,27.20
2019-05-19T15:40:39.279Z,27.30
2019-05-19T15:43:09.030Z,27.40
2019-05-19T15:45:38.954Z,27.00
2019-05-19T15:48:08.817Z,27.40
2019-05-19T15:50:38.581Z,27.90
2019-05-19T15:53:08.439Z,27.90
2019-05-19T15:55:38.195Z,28.30
2019-05-19T15:58:16.185Z,28.50
2019-05-19T16:00:39.437Z,28.90
2019-05-19T16:03:09.248Z,29.00
2019-05-19T16:05:38.936Z,28.70
2019-05-19T16:08:08.636Z,29.10
2019-05-19T16:10:38.410Z,30.40
2019-05-19T16:13:08.181Z,31.20
2019-05-19T16:15:37.946Z,31.50
2019-05-19T16:18:07.805Z,31.30
2019-05-19T16:20:37.555Z,31.70
2019-05-19T16:23:07.320Z,32.50
2019-05-19T16:25:37.039Z,32.00
2019-05-19T16:28:06.789Z,30.90
2019-05-19T16:30:36.584Z,30.90
2019-05-19T16:33:06.590Z,29.80
2019-05-19T16:35:36.368Z,29.30
2019-05-19T16:38:06.244Z,29.30
2019-05-19T16:40:36.033Z,29.10
2019-05-19T16:43:05.919Z,28.70
2019-05-19T16:45:35.757Z,28.10
2019-05-19T16:48:05.731Z,27.80
2019-05-19T16:50:35.570Z,27.20
2019-05-19T16:53:05.360Z,27.20
2019-05-19T16:55:35.150Z,26.80
2019-05-19T16:58:19.914Z,26.20
2019-05-19T17:00:36.765Z,26.10
2019-05-19T17:03:06.553Z,26.50
2019-05-19T17:05:36.367Z,27.10
2019-05-19T17:08:06.323Z,27.70
2019-05-19T17:10:36.114Z,26.60
2019-05-19T17:13:05.888Z,26.60
2019-05-19T17:15:35.742Z,26.80
2019-05-19T17:18:24.741Z,26.80
2019-05-19T17:20:54.512Z,26.60
2019-05-19T17:23:25.782Z,26.40
2019-05-19T17:25:55.546Z,26.60
2019-05-19T17:28:25.338Z,26.40
2019-05-19T17:30:55.347Z,26.70
2019-05-19T17:33:25.033Z,26.50
2019-05-19T17:35:54.803Z,26.70
2019-05-19T17:38:24.616Z,27.00
2019-05-19T17:40:54.388Z,27.90
2019-05-19T17:43:24.113Z,28.80
2019-05-19T17:45:53.914Z,29.90
2019-05-19T17:48:26.642Z,30.90
2019-05-19T17:50:55.074Z,31.60
2019-05-19T17:53:25.045Z,31.80
2019-05-19T17:55:56.534Z,31.90
2019-05-19T17:58:27.956Z,31.60
2019-05-19T18:00:57.688Z,30.90
2019-05-19T18:03:27.641Z,30.90
2019-05-19T18:05:57.401Z,30.20
2019-05-19T18:08:27.221Z,28.80
2019-05-19T18:10:56.906Z,28.60
2019-05-19T18:13:26.701Z,28.20
2019-05-19T18:15:56.479Z,27.90
2019-05-19T18:18:26.411Z,26.60
2019-05-19T18:20:56.130Z,26.00
2019-05-19T18:23:45.098Z,25.40
2019-05-19T18:26:14.892Z,25.10
2019-05-19T18:28:44.689Z,25.00
2019-05-19T18:31:14.574Z,24.80
2019-05-19T18:33:44.275Z,24.60
2019-05-19T18:36:13.938Z,24.10
2019-05-19T18:38:43.671Z,23.80
2019-05-19T18:41:13.401Z,23.70
2019-05-19T18:43:43.432Z,23.20
2019-05-19T18:46:13.218Z,23.60
2019-05-19T18:48:42.906Z,23.50
2019-05-19T18:51:12.714Z,23.30
2019-05-19T18:53:42.378Z,23.30
2019-05-19T18:56:12.385Z,23.20
2019-05-19T18:58:42.111Z,23.20
2019-05-19T19:01:11.857Z,23.20
2019-05-19T19:03:41.518Z,22.90
2019-05-19T19:06:11.198Z,23.10
2019-05-19T19:08:40.878Z,23.30
2019-05-19T19:11:10.618Z,23.10
2019-05-19T19:13:40.298Z,23.00
2019-05-19T19:16:09.985Z,23.20
2019-05-19T19:18:39.657Z,23.00
2019-05-19T19:21:09.391Z,22.90
2019-05-19T19:23:39.097Z,22.70
2019-05-19T19:26:09.024Z,22.60
2019-05-19T19:28:38.730Z,22.60
2019-05-19T19:31:08.386Z,22.50
2019-05-19T19:33:38.066Z,22.20
2019-05-19T19:36:07.781Z,22.10
2019-05-19T19:38:37.434Z,22.10
2019-05-19T19:41:07.238Z,22.00
2019-05-19T19:43:36.899Z,22.00
2019-05-19T19:46:06.716Z,21.80
2019-05-19T19:48:36.426Z,21.70
2019-05-19T19:51:06.140Z,21.60
2019-05-19T19:53:36.023Z,21.80
2019-05-19T19:56:05.725Z,21.70
2019-05-19T19:58:35.374Z,21.60
2019-05-19T20:01:05.130Z,21.50
2019-05-19T20:03:39.829Z,21.50
2019-05-19T20:06:06.452Z,21.50
